KSAA/SAA METAR and TAF weather

Enter ICAO airport designator
Station Type Date Time Source
KSAA METAR 2022/10/01 06:55 UTC NOAA

KSAA 010655Z AUTO 14011KT 10SM BKN050 BKN065 OVC120 08/05 A3016 RMK AO2


Station Type Date Time Source
KSAA Decoded METAR 2022/10/01 06:55 UTC NOAA

Station name not available
Oct 01, 2022 - 02:55 AM EDT / 2022.10.01 0655 UTC
Wind: from the SE (140 degrees) at 13 MPH (11 KT):0
Visibility: 10 mile(s):0
Sky conditions: overcast
Temperature: 46 F (8 C)
Dew Point: 41 F (5 C)
Relative Humidity: 81%
Pressure (altimeter): 30.16 in. Hg (1021 hPa)
ob: KSAA 010655Z AUTO 14011KT 10SM BKN050 BKN065 OVC120 08/05 A3016 RMK AO2
cycle: 7

Station Type Date Time Source
KSAA TAF UTC NOAA

Error!

Example: see airport list